Time;durP1;ratioP1;P1;durP2;ratioP2;P2;SDS_P1;SDS_P2;PMS_P1;PMS_P2;Temp;Humidity;BMP_temperature;BMP_pressure;BME280_temperature;BME280_humidity;BME280_pressure;Samples;Min_cycle;Max_cycle;Signal;HPM_P1;HPM_P2
2021/10/20 00:01:45;;;;;;;17.52;11.32;;;11.20;99.90;;;;;;5060752;28;20047;-70
2021/10/20 00:04:49;;;;;;;17.17;10.63;;;11.10;99.90;;;;;;5070853;28;20043;-70
2021/10/20 00:07:54;;;;;;;16.48;10.35;;;11.20;99.90;;;;;;5050970;28;20040;-70
2021/10/20 00:10:59;;;;;;;16.77;10.90;;;11.20;99.90;;;;;;5050406;28;20115;-71
2021/10/20 00:14:03;;;;;;;12.95;8.88;;;11.20;99.90;;;;;;5050277;28;20052;-71
2021/10/20 00:17:07;;;;;;;18.00;11.02;;;11.20;99.90;;;;;;5050865;28;20052;-70
2021/10/20 00:20:16;;;;;;;18.02;10.50;;;11.10;99.90;;;;;;5059504;28;20067;-71
2021/10/20 00:23:20;;;;;;;16.55;10.38;;;11.10;99.90;;;;;;5070614;28;20043;-71
2021/10/20 00:26:24;;;;;;;16.83;10.98;;;11.10;99.90;;;;;;5050955;28;20056;-71
2021/10/20 00:29:28;;;;;;;21.08;11.00;;;11.10;99.90;;;;;;5066605;28;20047;-71
2021/10/20 00:32:32;;;;;;;20.45;11.40;;;11.10;99.90;;;;;;5063833;28;20494;-71
2021/10/20 00:35:36;;;;;;;22.00;11.90;;;11.10;99.90;;;;;;5050359;28;20044;-71
2021/10/20 00:38:41;;;;;;;21.10;11.20;;;11.00;99.90;;;;;;5069585;28;20043;-71
2021/10/20 00:41:45;;;;;;;16.67;11.00;;;11.00;99.90;;;;;;5069498;28;20055;-70
2021/10/20 00:44:52;;;;;;;17.58;11.93;;;11.00;99.90;;;;;;5069997;28;20056;-70
2021/10/20 00:47:56;;;;;;;16.42;10.80;;;11.00;99.90;;;;;;5050013;28;20071;-71
2021/10/20 00:51:00;;;;;;;16.30;10.77;;;10.90;99.90;;;;;;5055236;28;20064;-71
2021/10/20 00:54:05;;;;;;;20.30;11.43;;;10.90;99.90;;;;;;5070263;28;20497;-71
2021/10/20 00:57:10;;;;;;;15.48;10.65;;;10.80;99.90;;;;;;5069356;28;20061;-70
2021/10/20 01:00:15;;;;;;;13.95;9.25;;;10.80;99.90;;;;;;5056536;28;20068;-71
2021/10/20 01:03:19;;;;;;;23.20;12.73;;;10.70;99.90;;;;;;5051375;28;20047;-71
2021/10/20 01:06:23;;;;;;;17.15;10.75;;;10.60;99.90;;;;;;5050059;28;20379;-71
2021/10/20 01:09:27;;;;;;;16.38;10.25;;;10.60;99.90;;;;;;5054425;28;20056;-71
2021/10/20 01:12:33;;;;;;;16.60;11.70;;;10.60;99.90;;;;;;5053405;28;20486;-71
2021/10/20 01:15:38;;;;;;;16.15;10.60;;;10.70;99.90;;;;;;5049881;28;20044;-71
2021/10/20 01:18:42;;;;;;;17.55;10.88;;;10.70;99.90;;;;;;5054388;28;20048;-71
2021/10/20 01:21:46;;;;;;;19.38;11.10;;;10.70;99.90;;;;;;5055112;28;20399;-71
2021/10/20 01:24:50;;;;;;;16.83;10.32;;;10.80;99.90;;;;;;5069664;28;20391;-70
2021/10/20 01:27:54;;;;;;;19.42;10.82;;;10.80;99.90;;;;;;5049555;28;20052;-70
2021/10/20 01:30:58;;;;;;;17.27;10.38;;;10.60;99.90;;;;;;5051888;28;20055;-71
2021/10/20 01:34:02;;;;;;;21.23;10.88;;;10.50;99.90;;;;;;5069882;28;20040;-71
2021/10/20 01:37:06;;;;;;;15.02;10.88;;;10.50;99.90;;;;;;5053039;28;20052;-71
2021/10/20 01:40:12;;;;;;;17.23;11.15;;;10.40;99.90;;;;;;5051857;28;20388;-71
2021/10/20 01:43:16;;;;;;;19.45;12.25;;;10.40;99.90;;;;;;5053998;28;20048;-71
2021/10/20 01:46:21;;;;;;;21.05;13.23;;;10.40;99.90;;;;;;5072412;28;20063;-71
2021/10/20 01:49:25;;;;;;;20.63;12.57;;;10.30;99.90;;;;;;5067355;28;20059;-71
2021/10/20 01:52:29;;;;;;;21.17;13.10;;;10.30;99.90;;;;;;5072612;28;20042;-71
2021/10/20 01:55:34;;;;;;;19.25;13.50;;;10.30;99.90;;;;;;5053332;28;20399;-71
2021/10/20 01:58:39;;;;;;;17.75;12.55;;;10.30;99.90;;;;;;5058387;28;20056;-70
2021/10/20 02:01:43;;;;;;;20.00;13.18;;;10.30;99.90;;;;;;5056241;28;20134;-70
2021/10/20 02:04:48;;;;;;;16.45;11.80;;;10.30;99.90;;;;;;5053540;28;20044;-71
2021/10/20 02:07:52;;;;;;;14.82;10.40;;;10.40;99.90;;;;;;5057670;28;20072;-70
2021/10/20 02:10:56;;;;;;;17.45;10.68;;;10.40;99.90;;;;;;5053458;28;20510;-71
2021/10/20 02:14:01;;;;;;;14.75;9.82;;;10.40;99.90;;;;;;5053337;28;20430;-71
2021/10/20 02:17:06;;;;;;;15.30;10.48;;;10.30;99.90;;;;;;5066546;28;20043;-71
2021/10/20 02:20:12;;;;;;;19.67;11.07;;;10.30;99.90;;;;;;5071487;28;20036;-71
2021/10/20 02:23:17;;;;;;;19.08;10.85;;;10.30;99.90;;;;;;5073118;28;20043;-70
2021/10/20 02:26:21;;;;;;;12.63;9.48;;;10.30;99.90;;;;;;5068506;28;20043;-70
2021/10/20 02:29:25;;;;;;;22.40;15.02;;;10.40;99.90;;;;;;5062340;28;20395;-70
2021/10/20 02:32:29;;;;;;;22.05;15.40;;;10.30;99.90;;;;;;5052947;28;20036;-70
2021/10/20 02:35:33;;;;;;;24.17;13.85;;;10.20;99.90;;;;;;5070755;28;20051;-71
2021/10/20 02:38:37;;;;;;;23.73;13.90;;;10.10;99.90;;;;;;5070808;28;20130;-70
2021/10/20 02:41:41;;;;;;;21.77;12.20;;;10.00;99.90;;;;;;5072653;28;20217;-71
2021/10/20 02:44:46;;;;;;;23.63;13.93;;;9.90;99.90;;;;;;5052229;28;20391;-70
2021/10/20 02:47:50;;;;;;;23.35;13.57;;;9.80;99.90;;;;;;5065414;28;20043;-70
2021/10/20 02:50:54;;;;;;;29.95;15.52;;;9.70;99.90;;;;;;5069146;28;20047;-70
2021/10/20 02:53:58;;;;;;;24.30;15.20;;;9.60;99.90;;;;;;5052462;28;20044;-70
2021/10/20 02:57:03;;;;;;;25.58;15.18;;;9.60;99.90;;;;;;5057553;28;20040;-70
2021/10/20 03:00:07;;;;;;;23.02;14.65;;;9.60;99.90;;;;;;5051901;28;20283;-71
2021/10/20 03:03:11;;;;;;;25.35;16.58;;;9.50;99.90;;;;;;5052412;28;20119;-70
2021/10/20 03:06:16;;;;;;;25.50;16.50;;;9.60;99.90;;;;;;5051344;28;20107;-70
2021/10/20 03:09:20;;;;;;;25.98;15.68;;;9.60;99.90;;;;;;5055816;28;20037;-70
2021/10/20 03:12:24;;;;;;;22.58;15.77;;;9.50;99.90;;;;;;5052041;28;20056;-70
2021/10/20 03:15:28;;;;;;;28.85;17.42;;;9.50;99.90;;;;;;5056406;28;20399;-70
2021/10/20 03:18:33;;;;;;;24.20;16.25;;;9.50;99.90;;;;;;5058953;28;20039;-71
2021/10/20 03:21:37;;;;;;;22.80;15.23;;;9.50;99.90;;;;;;5072016;28;20123;-71
2021/10/20 03:24:41;;;;;;;26.52;15.82;;;9.40;99.90;;;;;;5068550;28;20051;-70
2021/10/20 03:27:47;;;;;;;22.63;16.17;;;9.40;99.90;;;;;;5064578;28;20040;-71
2021/10/20 03:30:51;;;;;;;26.23;15.55;;;9.40;99.90;;;;;;5051405;28;20048;-70
2021/10/20 03:33:56;;;;;;;22.20;15.05;;;9.30;99.90;;;;;;5070473;28;20044;-70
2021/10/20 03:37:00;;;;;;;23.15;13.60;;;9.30;99.90;;;;;;5065796;28;20047;-70
2021/10/20 03:40:05;;;;;;;23.10;14.30;;;9.30;99.90;;;;;;5070831;28;20043;-71
2021/10/20 03:43:11;;;;;;;25.02;14.65;;;9.30;99.90;;;;;;5071559;28;20035;-70
2021/10/20 03:46:15;;;;;;;21.00;14.10;;;9.20;99.90;;;;;;5070204;28;20035;-70
2021/10/20 03:49:19;;;;;;;23.20;15.57;;;9.20;99.90;;;;;;5067200;28;20064;-70
2021/10/20 03:52:23;;;;;;;29.38;17.52;;;9.10;99.90;;;;;;5051357;28;20044;-70
2021/10/20 03:55:27;;;;;;;27.52;17.73;;;9.10;99.90;;;;;;5051234;28;20040;-70
2021/10/20 03:58:31;;;;;;;29.13;17.70;;;9.00;99.90;;;;;;5055180;28;20055;-70
2021/10/20 04:01:35;;;;;;;27.02;17.23;;;9.00;99.90;;;;;;5071252;28;20545;-70
2021/10/20 04:04:40;;;;;;;27.58;17.90;;;9.10;99.90;;;;;;5069645;28;20500;-71
2021/10/20 04:07:45;;;;;;;22.80;15.68;;;9.10;99.90;;;;;;5065259;28;20048;-70
2021/10/20 04:10:50;;;;;;;24.20;15.77;;;9.20;99.90;;;;;;5070690;28;20044;-70
2021/10/20 04:13:54;;;;;;;28.15;16.02;;;9.10;99.90;;;;;;5053658;28;20056;-71
2021/10/20 04:16:58;;;;;;;22.00;14.15;;;9.10;99.90;;;;;;5054628;28;20656;-71
2021/10/20 04:20:02;;;;;;;24.88;15.57;;;9.10;99.90;;;;;;5050545;28;20044;-71
2021/10/20 04:23:06;;;;;;;22.58;14.48;;;9.10;99.90;;;;;;5050868;28;20051;-71
2021/10/20 04:26:10;;;;;;;24.48;14.05;;;9.10;99.90;;;;;;5056954;28;20043;-71
2021/10/20 04:29:14;;;;;;;23.90;12.93;;;9.20;99.90;;;;;;5069937;28;20119;-71
2021/10/20 04:32:18;;;;;;;23.80;14.15;;;9.30;99.90;;;;;;5047402;28;20048;-70
2021/10/20 04:35:24;;;;;;;26.25;14.80;;;9.20;99.90;;;;;;5063187;28;20056;-71
2021/10/20 04:38:29;;;;;;;22.90;14.18;;;9.00;99.90;;;;;;5069535;28;20047;-71
2021/10/20 04:41:32;;;;;;;28.50;17.58;;;9.00;99.90;;;;;;5050726;28;20047;-71
2021/10/20 04:44:37;;;;;;;30.10;16.48;;;8.80;99.90;;;;;;5060047;28;20051;-70
2021/10/20 04:47:40;;;;;;;26.98;16.23;;;8.70;99.90;;;;;;5069189;28;20040;-70
2021/10/20 04:50:44;;;;;;;25.90;16.83;;;8.50;99.90;;;;;;5070600;28;20044;-70
2021/10/20 04:53:49;;;;;;;26.85;17.70;;;8.40;99.90;;;;;;5056342;28;20052;-71
2021/10/20 04:56:53;;;;;;;29.70;16.02;;;8.30;99.90;;;;;;5054261;28;20051;-71
2021/10/20 04:59:57;;;;;;;34.45;17.48;;;8.30;99.90;;;;;;5049920;28;20242;-71
2021/10/20 05:03:01;;;;;;;42.72;16.95;;;8.30;99.90;;;;;;5049124;28;20051;-70
2021/10/20 05:06:06;;;;;;;28.58;15.65;;;8.30;99.90;;;;;;5057151;28;20048;-71
2021/10/20 05:09:09;;;;;;;25.17;14.48;;;8.40;99.90;;;;;;5069713;28;20494;-70
2021/10/20 05:12:13;;;;;;;25.17;15.25;;;8.50;99.90;;;;;;5066799;28;20056;-70
2021/10/20 05:15:19;;;;;;;25.45;14.57;;;8.50;99.90;;;;;;5068531;28;20048;-70
2021/10/20 05:18:23;;;;;;;20.52;13.00;;;8.50;99.90;;;;;;5069807;28;20047;-70
2021/10/20 05:21:27;;;;;;;25.95;15.32;;;8.40;99.90;;;;;;5069060;28;20117;-71
2021/10/20 05:24:31;;;;;;;18.13;12.25;;;8.40;99.90;;;;;;5060962;28;20040;-70
2021/10/20 05:27:36;;;;;;;20.17;12.98;;;8.40;99.90;;;;;;5049805;28;20110;-70
2021/10/20 05:30:40;;;;;;;20.20;12.65;;;8.30;99.90;;;;;;5050370;28;20048;-70
2021/10/20 05:33:44;;;;;;;22.02;14.43;;;8.40;99.90;;;;;;5054433;28;20040;-70
2021/10/20 05:36:48;;;;;;;48.65;24.40;;;8.30;99.90;;;;;;5053497;28;20051;-71
2021/10/20 05:39:53;;;;;;;28.40;16.27;;;8.30;99.90;;;;;;5069499;28;20044;-70
2021/10/20 05:42:57;;;;;;;25.20;14.77;;;8.40;99.90;;;;;;5064195;28;20043;-70
2021/10/20 05:46:01;;;;;;;23.30;12.93;;;8.40;99.90;;;;;;5064284;28;20056;-70
2021/10/20 05:49:05;;;;;;;26.02;13.57;;;8.40;99.90;;;;;;5049261;28;20052;-70
2021/10/20 05:52:09;;;;;;;18.17;12.48;;;8.40;99.90;;;;;;5067669;28;20051;-70
2021/10/20 05:55:14;;;;;;;21.88;13.13;;;8.40;99.90;;;;;;5063697;28;20503;-71
2021/10/20 05:58:18;;;;;;;18.70;11.35;;;8.50;99.90;;;;;;5069287;28;20039;-71
2021/10/20 06:01:23;;;;;;;18.73;10.75;;;8.50;99.90;;;;;;5049264;28;20051;-71
2021/10/20 06:04:27;;;;;;;17.33;10.88;;;8.60;99.90;;;;;;5057345;28;20118;-71
2021/10/20 06:07:31;;;;;;;18.38;10.77;;;8.70;99.90;;;;;;5057828;28;20048;-71
2021/10/20 06:10:35;;;;;;;15.70;10.60;;;8.80;99.90;;;;;;5049784;28;20044;-70
2021/10/20 06:13:39;;;;;;;15.98;9.80;;;8.90;99.90;;;;;;5059667;28;20048;-71
2021/10/20 06:16:43;;;;;;;13.50;8.80;;;10.30;99.90;;;;;;5061989;28;20510;-71
2021/10/20 06:19:48;;;;;;;14.68;8.80;;;13.00;99.90;;;;;;5060637;28;20446;-71
2021/10/20 06:22:52;;;;;;;14.32;8.13;;;15.50;99.90;;;;;;5060774;28;20036;-71
2021/10/20 06:25:57;;;;;;;14.75;8.35;;;16.70;99.90;;;;;;5061917;28;20043;-71
2021/10/20 06:29:01;;;;;;;11.25;7.00;;;17.70;99.90;;;;;;5067071;28;20493;-71
2021/10/20 06:32:05;;;;;;;10.68;7.80;;;18.10;99.90;;;;;;5061565;28;20060;-71
2021/10/20 06:35:12;;;;;;;14.55;8.15;;;16.60;99.90;;;;;;5067756;28;20047;-71
2021/10/20 06:38:16;;;;;;;12.20;9.10;;;15.80;99.90;;;;;;5060628;28;20040;-71
2021/10/20 06:41:20;;;;;;;12.73;8.23;;;14.80;99.90;;;;;;5059301;28;20079;-71
2021/10/20 06:44:26;;;;;;;12.77;8.98;;;13.90;99.90;;;;;;5066848;28;20043;-71
2021/10/20 06:47:30;;;;;;;14.60;8.85;;;12.50;99.90;;;;;;5060857;28;20036;-71
2021/10/20 06:50:34;;;;;;;12.82;8.95;;;12.30;99.90;;;;;;5063829;28;20032;-71
2021/10/20 06:53:40;;;;;;;15.50;8.32;;;11.90;99.90;;;;;;5062415;28;20035;-71
2021/10/20 06:56:48;;;;;;;13.43;8.93;;;11.50;99.90;;;;;;5061067;28;20051;-71
2021/10/20 06:59:52;;;;;;;15.90;9.18;;;11.40;99.90;;;;;;5066642;28;20387;-71
2021/10/20 07:02:57;;;;;;;14.50;9.57;;;11.00;99.90;;;;;;5060807;28;20036;-71
2021/10/20 07:06:02;;;;;;;17.75;9.70;;;11.30;99.90;;;;;;5071352;28;20063;-71
2021/10/20 07:09:07;;;;;;;14.82;8.98;;;11.70;99.90;;;;;;5066993;28;20118;-71
2021/10/20 07:12:11;;;;;;;17.20;9.48;;;12.00;99.90;;;;;;5064368;28;20047;-71
2021/10/20 07:15:15;;;;;;;13.52;9.45;;;12.70;99.90;;;;;;5061685;28;20122;-71
2021/10/20 07:18:20;;;;;;;12.43;8.88;;;13.40;99.90;;;;;;5062925;28;20036;-71
2021/10/20 07:21:23;;;;;;;10.65;8.38;;;13.50;99.90;;;;;;5060202;28;20035;-71
2021/10/20 07:24:28;;;;;;;11.88;8.68;;;13.70;99.90;;;;;;5059731;28;20043;-71
2021/10/20 07:27:34;;;;;;;13.57;8.20;;;13.00;99.90;;;;;;5066855;28;20723;-71
2021/10/20 07:30:38;;;;;;;15.05;8.20;;;12.80;99.90;;;;;;5055582;28;20043;-71
2021/10/20 07:33:42;;;;;;;13.93;8.25;;;13.00;99.90;;;;;;5068185;28;20043;-71
2021/10/20 07:36:46;;;;;;;12.38;8.77;;;13.40;99.90;;;;;;5062647;28;20044;-71
2021/10/20 07:39:50;;;;;;;13.85;8.18;;;14.00;99.90;;;;;;5061006;28;20036;-71
2021/10/20 07:42:54;;;;;;;12.43;8.30;;;14.40;99.90;;;;;;5063512;28;20036;-71
2021/10/20 07:45:58;;;;;;;12.23;7.95;;;14.50;99.90;;;;;;5067812;28;20403;-71
2021/10/20 07:49:03;;;;;;;10.57;7.97;;;14.60;99.90;;;;;;5063843;28;20043;-71
2021/10/20 07:52:07;;;;;;;10.23;7.95;;;14.60;99.90;;;;;;5065809;28;20557;-71
2021/10/20 07:55:11;;;;;;;10.77;7.30;;;15.50;99.90;;;;;;5065075;28;20047;-72
2021/10/20 07:58:16;;;;;;;12.70;7.85;;;17.70;99.90;;;;;;5062603;28;20039;-72
2021/10/20 08:01:19;;;;;;;11.80;6.93;;;19.30;99.90;;;;;;5058343;28;20044;-71
2021/10/20 08:04:23;;;;;;;12.38;6.68;;;20.80;98.90;;;;;;5056729;28;20036;-72
2021/10/20 08:07:27;;;;;;;8.95;6.45;;;22.50;94.50;;;;;;5055279;28;20039;-72
2021/10/20 08:10:31;;;;;;;7.53;5.82;;;22.10;94.40;;;;;;5055023;28;20040;-72
2021/10/20 08:13:35;;;;;;;7.20;5.47;;;23.20;92.40;;;;;;5058590;28;20052;-72
2021/10/20 08:16:39;;;;;;;10.13;6.13;;;22.10;92.40;;;;;;5066782;28;20040;-72
2021/10/20 08:19:44;;;;;;;8.10;6.07;;;20.10;93.10;;;;;;5063111;28;20055;-72
2021/10/20 08:22:48;;;;;;;10.13;6.65;;;20.80;94.10;;;;;;5066994;28;20043;-72
2021/10/20 08:25:52;;;;;;;7.90;5.93;;;21.90;92.20;;;;;;5064549;28;20036;-72
2021/10/20 08:28:57;;;;;;;7.88;5.80;;;22.90;91.20;;;;;;5059500;28;20399;-72
2021/10/20 08:32:02;;;;;;;10.38;6.32;;;23.60;90.80;;;;;;5060871;28;20406;-72
2021/10/20 08:35:07;;;;;;;10.77;5.85;;;26.00;86.90;;;;;;5063093;28;20039;-72
2021/10/20 08:38:12;;;;;;;8.32;6.45;;;25.40;85.50;;;;;;5066684;28;20059;-72
2021/10/20 08:41:16;;;;;;;10.85;6.75;;;24.60;85.50;;;;;;5058991;28;20498;-72
2021/10/20 08:44:20;;;;;;;8.63;6.03;;;22.50;88.50;;;;;;5058695;28;20044;-72
2021/10/20 08:47:25;;;;;;;14.23;6.25;;;25.10;86.50;;;;;;5060553;28;20473;-72
2021/10/20 08:50:33;;;;;;;9.32;6.35;;;25.50;83.10;;;;;;5060088;28;20056;-72
2021/10/20 08:53:37;;;;;;;11.00;7.13;;;24.50;84.40;;;;;;5062085;28;20055;-72
2021/10/20 08:56:44;;;;;;;8.05;6.55;;;23.10;86.70;;;;;;5056764;28;20551;-72
2021/10/20 08:59:49;;;;;;;11.50;6.85;;;23.70;87.80;;;;;;5063931;28;20032;-72
2021/10/20 09:02:54;;;;;;;11.35;7.20;;;22.90;87.60;;;;;;5062677;28;20043;-72
2021/10/20 09:05:59;;;;;;;12.60;6.93;;;22.30;89.00;;;;;;5065286;28;20055;-72
2021/10/20 09:09:07;;;;;;;11.27;6.85;;;22.70;89.30;;;;;;5058835;28;20068;-72
2021/10/20 09:12:11;;;;;;;11.02;7.28;;;23.90;87.60;;;;;;5060907;28;20059;-72
2021/10/20 09:15:20;;;;;;;12.50;7.78;;;24.00;87.30;;;;;;5060751;28;20486;-72
2021/10/20 09:18:24;;;;;;;14.57;8.68;;;25.10;85.70;;;;;;5060217;28;20043;-72
2021/10/20 09:21:28;;;;;;;12.60;9.05;;;27.30;82.50;;;;;;5063374;28;20044;-72
2021/10/20 09:24:38;;;;;;;12.20;8.80;;;27.60;80.40;;;;;;5059763;28;20094;-72
2021/10/20 09:27:44;;;;;;;15.35;8.63;;;25.90;82.60;;;;;;5065922;28;20082;-72
2021/10/20 09:30:49;;;;;;;13.27;9.07;;;24.50;82.90;;;;;;5058292;28;20055;-72
2021/10/20 09:34:04;;;;;;;13.80;8.60;;;23.00;86.30;;;;;;5063472;28;20051;-72
2021/10/20 09:37:08;;;;;;;10.80;7.55;;;21.50;90.50;;;;;;5063360;28;20051;-71
2021/10/20 09:40:14;;;;;;;22.10;8.27;;;21.90;90.30;;;;;;5059292;28;20036;-72
2021/10/20 09:43:26;;;;;;;13.25;8.15;;;21.80;90.50;;;;;;5061077;28;20039;-71
2021/10/20 09:46:33;;;;;;;15.48;7.97;;;22.20;90.30;;;;;;5064391;28;20071;-72
2021/10/20 09:49:47;;;;;;;15.57;7.70;;;22.20;90.30;;;;;;5062939;28;20039;-72
2021/10/20 09:52:52;;;;;;;13.63;7.93;;;21.50;90.20;;;;;;5065877;28;20043;-72
2021/10/20 09:56:00;;;;;;;12.95;7.90;;;20.10;92.70;;;;;;5050258;28;20427;-72
2021/10/20 09:59:07;;;;;;;12.40;7.70;;;21.40;92.20;;;;;;5062248;28;20044;-72
2021/10/20 10:02:12;;;;;;;18.90;8.35;;;25.40;87.70;;;;;;5063648;28;20039;-72
2021/10/20 10:05:16;;;;;;;11.13;7.30;;;28.70;80.60;;;;;;5065646;28;20036;-70
2021/10/20 10:08:19;;;;;;;17.88;8.95;;;31.00;76.90;;;;;;5068501;28;20051;-73
2021/10/20 10:11:24;;;;;;;11.45;7.93;;;33.30;72.70;;;;;;5062897;28;20035;-72
2021/10/20 10:14:34;;;;;;;11.13;7.20;;;33.70;70.10;;;;;;5067129;28;20232;-72
2021/10/20 10:17:41;;;;;;;9.23;7.25;;;33.90;69.00;;;;;;5062449;28;20043;-72
2021/10/20 10:20:45;;;;;;;9.98;7.30;;;33.30;69.60;;;;;;5062378;28;20040;-70
2021/10/20 10:23:55;;;;;;;10.15;6.93;;;34.10;69.20;;;;;;5064816;28;20036;-70
2021/10/20 10:27:08;;;;;;;10.20;6.20;;;33.50;67.90;;;;;;5063245;28;20383;-70
2021/10/20 10:30:18;;;;;;;12.20;6.28;;;34.90;66.30;;;;;;5065179;28;20035;-70
2021/10/20 10:33:27;;;;;;;9.13;5.15;;;31.10;67.90;;;;;;5063650;28;20044;-70
2021/10/20 10:36:31;;;;;;;8.45;5.05;;;31.30;69.60;;;;;;5066056;28;20052;-72
2021/10/20 10:39:35;;;;;;;9.88;5.18;;;30.10;73.00;;;;;;5063331;28;20391;-70
2021/10/20 10:42:44;;;;;;;9.45;4.82;;;28.40;74.50;;;;;;5059299;28;20043;-72
2021/10/20 10:45:48;;;;;;;7.70;5.18;;;25.20;81.00;;;;;;5051397;28;20060;-72
2021/10/20 10:48:52;;;;;;;8.57;5.32;;;26.20;79.50;;;;;;5055359;28;20490;-72
2021/10/20 10:52:16;;;;;;;13.68;6.00;;;26.00;80.20;;;;;;5069863;28;20051;-72
2021/10/20 10:55:22;;;;;;;6.75;3.75;;;29.90;75.10;;;;;;5069387;28;20538;-70
2021/10/20 10:58:26;;;;;;;8.07;4.05;;;32.90;71.50;;;;;;5064825;28;20044;-72
2021/10/20 11:01:38;;;;;;;9.52;4.50;;;29.80;72.00;;;;;;5060062;28;20055;-70
2021/10/20 11:04:43;;;;;;;5.65;3.20;;;28.30;74.80;;;;;;5063219;28;20567;-71
2021/10/20 11:07:49;;;;;;;6.75;3.10;;;29.10;75.40;;;;;;5063747;28;20063;-73
2021/10/20 11:10:54;;;;;;;5.43;2.53;;;32.00;72.30;;;;;;5051813;28;20514;-73
2021/10/20 11:14:00;;;;;;;5.07;2.78;;;32.70;70.00;;;;;;5057703;28;20403;-72
2021/10/20 11:17:07;;;;;;;3.85;2.20;;;33.80;68.40;;;;;;5067114;28;20044;-72
2021/10/20 11:20:14;;;;;;;3.78;2.50;;;35.50;67.50;;;;;;5051811;28;20403;-72
2021/10/20 11:23:19;;;;;;;6.63;2.65;;;36.70;65.20;;;;;;5058804;28;20040;-72
2021/10/20 11:26:24;;;;;;;3.40;2.00;;;34.20;65.00;;;;;;5069918;28;20040;-72
2021/10/20 11:29:28;;;;;;;6.60;3.10;;;30.60;70.10;;;;;;5067336;28;20047;-71
2021/10/20 11:32:35;;;;;;;5.65;3.10;;;27.30;75.70;;;;;;5058878;28;20518;-72
2021/10/20 11:35:40;;;;;;;5.38;3.60;;;25.60;79.10;;;;;;5052868;28;20051;-71
2021/10/20 11:38:46;;;;;;;6.95;4.40;;;24.20;83.70;;;;;;5071197;28;20040;-71
2021/10/20 11:41:53;;;;;;;7.22;4.68;;;23.90;85.50;;;;;;5067014;28;20485;-72
2021/10/20 11:45:04;;;;;;;5.32;4.00;;;24.20;85.40;;;;;;5060003;28;20115;-71
2021/10/20 11:48:08;;;;;;;7.95;4.45;;;25.60;79.60;;;;;;5067363;28;20423;-71
2021/10/20 11:51:13;;;;;;;4.70;3.22;;;25.70;80.30;;;;;;5061988;28;20036;-71
2021/10/20 11:54:19;;;;;;;9.20;4.93;;;26.00;80.60;;;;;;5059207;28;20383;-71
2021/10/20 11:57:25;;;;;;;10.32;5.32;;;25.80;81.80;;;;;;5062180;28;20040;-71
2021/10/20 12:00:34;;;;;;;8.55;5.68;;;25.30;82.40;;;;;;5055303;28;20052;-71
2021/10/20 12:03:43;;;;;;;12.80;5.28;;;24.70;83.80;;;;;;5064047;28;20040;-71
2021/10/20 12:06:49;;;;;;;7.07;4.90;;;24.20;85.10;;;;;;5066118;28;20048;-71
2021/10/20 12:09:54;;;;;;;7.25;4.28;;;23.80;85.50;;;;;;5062629;28;20052;-71
2021/10/20 12:12:58;;;;;;;6.60;4.80;;;23.20;87.90;;;;;;5057810;28;20044;-71
2021/10/20 12:16:02;;;;;;;8.63;4.57;;;24.40;86.60;;;;;;5057447;28;20055;-72
2021/10/20 12:19:08;;;;;;;6.25;4.25;;;27.40;81.40;;;;;;5055436;28;20052;-72
2021/10/20 12:22:14;;;;;;;5.88;3.63;;;28.00;78.50;;;;;;5054113;28;20044;-72
2021/10/20 12:25:18;;;;;;;7.15;3.70;;;27.70;78.60;;;;;;5055154;28;20059;-72
2021/10/20 12:28:25;;;;;;;4.60;3.58;;;26.90;79.70;;;;;;5064439;28;20380;-72
2021/10/20 12:31:30;;;;;;;6.88;3.80;;;26.40;80.30;;;;;;5068681;28;20040;-72
2021/10/20 12:34:34;;;;;;;5.30;3.60;;;26.20;80.50;;;;;;5059031;28;20035;-72
2021/10/20 12:37:44;;;;;;;6.38;3.90;;;26.00;81.30;;;;;;5056619;28;20055;-72
2021/10/20 12:40:49;;;;;;;6.32;4.10;;;26.10;81.40;;;;;;5053650;28;20060;-72
2021/10/20 12:43:55;;;;;;;4.47;3.30;;;27.20;80.80;;;;;;5053972;28;20400;-72
2021/10/20 12:46:59;;;;;;;4.38;3.58;;;30.50;75.90;;;;;;5056774;28;20427;-72
2021/10/20 12:50:05;;;;;;;7.80;3.45;;;32.80;71.80;;;;;;5057659;28;20419;-72
2021/10/20 12:53:16;;;;;;;6.38;3.60;;;33.00;69.40;;;;;;5062836;28;20095;-72
2021/10/20 12:56:22;;;;;;;;;;;31.00;71.90;;;;;;5061234;28;20048;-72
2021/10/20 12:59:29;;;;;;;4.20;3.03;;;29.50;73.30;;;;;;5067285;28;19915;-72
2021/10/20 13:02:34;;;;;;;3.33;2.60;;;28.50;75.90;;;;;;5061733;28;20046;-72
2021/10/20 13:05:38;;;;;;;3.90;2.67;;;29.90;74.60;;;;;;5061959;28;20039;-72
2021/10/20 13:08:43;;;;;;;4.75;2.47;;;32.20;71.30;;;;;;5064306;28;20439;-73
2021/10/20 13:11:47;;;;;;;3.63;2.30;;;34.00;69.00;;;;;;5060680;28;20403;-72
2021/10/20 13:14:51;;;;;;;4.32;2.70;;;34.90;67.40;;;;;;5057032;28;20040;-72
2021/10/20 13:17:57;;;;;;;3.70;2.20;;;35.60;66.10;;;;;;5063902;28;20052;-73
2021/10/20 13:21:02;;;;;;;5.07;2.30;;;35.90;64.70;;;;;;5064109;28;20063;-73
2021/10/20 13:24:07;;;;;;;4.50;2.78;;;34.40;65.60;;;;;;5062267;28;20043;-72
2021/10/20 13:27:11;;;;;;;3.42;2.50;;;33.20;66.40;;;;;;5054362;28;20043;-72
2021/10/20 13:30:16;;;;;;;2.67;2.03;;;32.40;67.40;;;;;;5069227;28;20044;-72
2021/10/20 13:33:20;;;;;;;4.63;2.33;;;31.60;68.80;;;;;;5062804;28;20048;-72
2021/10/20 13:36:25;;;;;;;7.10;2.15;;;30.70;69.30;;;;;;5057942;28;20048;-72
2021/10/20 13:39:29;;;;;;;3.03;2.17;;;31.10;69.10;;;;;;5069569;28;20044;-72
2021/10/20 13:42:33;;;;;;;3.85;2.20;;;32.40;68.40;;;;;;5063362;28;20036;-72
2021/10/20 13:45:38;;;;;;;2.30;2.05;;;32.00;68.20;;;;;;5060090;28;20506;-72
2021/10/20 13:48:42;;;;;;;3.42;2.47;;;31.60;68.80;;;;;;5060583;28;20128;-72
2021/10/20 13:51:46;;;;;;;3.33;2.72;;;29.80;70.50;;;;;;5059814;28;20388;-72
2021/10/20 13:54:51;;;;;;;4.07;2.50;;;28.80;71.80;;;;;;5065829;28;20414;-72
2021/10/20 13:57:57;;;;;;;5.30;2.90;;;27.20;74.50;;;;;;5067597;28;20059;-71
2021/10/20 14:01:01;;;;;;;4.93;2.88;;;26.30;76.60;;;;;;5062059;28;20063;-71
2021/10/20 14:04:05;;;;;;;4.68;3.17;;;25.70;77.00;;;;;;5060509;28;20075;-72
2021/10/20 14:07:10;;;;;;;4.30;3.22;;;24.90;79.90;;;;;;5068989;28;20155;-72
2021/10/20 14:10:15;;;;;;;4.13;2.90;;;25.40;78.70;;;;;;5064319;28;20031;-73
2021/10/20 14:13:19;;;;;;;9.88;2.80;;;25.30;79.00;;;;;;5067138;28;20067;-72
2021/10/20 14:16:24;;;;;;;4.55;2.90;;;25.10;79.10;;;;;;5053729;28;20534;-71
2021/10/20 14:19:28;;;;;;;4.38;3.20;;;24.00;81.40;;;;;;5052951;28;20134;-71
2021/10/20 14:22:33;;;;;;;6.15;3.30;;;22.40;85.90;;;;;;5059690;28;20107;-71
2021/10/20 14:25:37;;;;;;;4.60;3.40;;;22.40;87.10;;;;;;5072625;28;20051;-72
2021/10/20 14:28:41;;;;;;;4.53;3.00;;;22.90;86.10;;;;;;5052538;28;20513;-71
2021/10/20 14:31:45;;;;;;;5.90;3.28;;;24.50;82.40;;;;;;5066299;28;20035;-72
2021/10/20 14:34:49;;;;;;;6.05;3.22;;;23.10;84.40;;;;;;5052838;28;20059;-72
2021/10/20 14:37:53;;;;;;;9.75;3.45;;;24.30;83.50;;;;;;5060461;28;20047;-72
2021/10/20 14:40:57;;;;;;;6.70;2.85;;;25.40;80.80;;;;;;5052666;28;20388;-72
2021/10/20 14:44:02;;;;;;;6.90;2.88;;;25.00;80.40;;;;;;5055897;28;20047;-72
2021/10/20 14:47:06;;;;;;;4.70;3.75;;;24.60;81.10;;;;;;5071247;28;20055;-71
2021/10/20 14:50:10;;;;;;;4.63;3.30;;;23.50;83.90;;;;;;5056451;28;20044;-71
2021/10/20 14:53:14;;;;;;;5.40;3.28;;;22.80;86.30;;;;;;5059184;28;20036;-71
2021/10/20 14:56:20;;;;;;;4.93;3.60;;;22.40;87.00;;;;;;5052670;28;20380;-71
2021/10/20 14:59:26;;;;;;;3.88;3.03;;;21.50;89.30;;;;;;5055963;28;20036;-71
2021/10/20 15:02:30;;;;;;;10.27;3.40;;;21.40;90.00;;;;;;5055500;28;20388;-71
2021/10/20 15:05:34;;;;;;;9.73;3.45;;;21.50;90.20;;;;;;5068810;28;20306;-71
2021/10/20 15:08:40;;;;;;;9.93;3.90;;;22.10;90.10;;;;;;5056910;28;20383;-71
2021/10/20 15:11:45;;;;;;;9.77;3.47;;;22.80;89.10;;;;;;5060849;28;20043;-71
2021/10/20 15:14:49;;;;;;;6.47;3.50;;;23.70;87.20;;;;;;5056491;28;20040;-71
2021/10/20 15:18:08;;;;;;;6.85;3.67;;;24.50;85.80;;;;;;5052881;28;20063;-72
2021/10/20 15:21:13;;;;;;;4.97;3.35;;;24.80;85.40;;;;;;5071654;28;20052;-72
2021/10/20 15:24:17;;;;;;;10.32;3.92;;;24.60;85.30;;;;;;5070766;28;20134;-72
2021/10/20 15:27:22;;;;;;;5.70;4.05;;;24.10;86.30;;;;;;5072253;28;20044;-72
2021/10/20 15:30:27;;;;;;;9.65;3.35;;;23.70;87.30;;;;;;5071490;28;20229;-72
2021/10/20 15:33:32;;;;;;;6.20;3.60;;;23.40;89.40;;;;;;5064997;28;20494;-71
2021/10/20 15:36:37;;;;;;;4.78;3.47;;;23.10;89.20;;;;;;5051879;28;20499;-72
2021/10/20 15:39:42;;;;;;;7.22;3.97;;;22.90;89.90;;;;;;5070269;28;20107;-71
2021/10/20 15:42:48;;;;;;;6.38;3.80;;;22.70;90.00;;;;;;5070310;28;20055;-71
2021/10/20 15:45:52;;;;;;;5.38;3.67;;;22.40;90.50;;;;;;5069952;28;20051;-71
2021/10/20 15:48:56;;;;;;;6.10;3.65;;;22.10;90.90;;;;;;5051204;28;20407;-72
2021/10/20 15:52:00;;;;;;;7.20;4.38;;;21.80;91.30;;;;;;5065285;28;20043;-71